createdAt,value
2023-03-13T00:01:13.982Z,5.70
2023-03-13T00:03:41.826Z,5.60
2023-03-13T00:06:10.248Z,5.60
2023-03-13T00:08:38.265Z,5.50
2023-03-13T00:11:07.398Z,5.50
2023-03-13T00:13:35.792Z,5.60
2023-03-13T00:16:05.057Z,5.60
2023-03-13T00:18:34.210Z,5.60
2023-03-13T00:21:02.728Z,5.50
2023-03-13T00:23:31.109Z,5.50
2023-03-13T00:25:59.775Z,5.50
2023-03-13T00:28:32.386Z,5.40
2023-03-13T00:31:04.396Z,5.40
2023-03-13T00:33:34.436Z,5.40
2023-03-13T00:36:02.911Z,5.40
2023-03-13T00:38:31.237Z,5.40
2023-03-13T00:41:03.390Z,5.40
2023-03-13T00:43:31.424Z,5.40
2023-03-13T00:45:59.510Z,5.40
2023-03-13T00:48:27.531Z,5.30
2023-03-13T00:50:57.032Z,5.30
2023-03-13T00:53:25.049Z,5.30
2023-03-13T00:55:54.410Z,5.40
2023-03-13T00:58:22.634Z,5.30
2023-03-13T01:00:50.613Z,5.30
2023-03-13T01:03:18.556Z,5.30
2023-03-13T01:05:46.405Z,5.20
2023-03-13T01:08:15.505Z,5.20
2023-03-13T01:10:43.255Z,5.20
2023-03-13T01:13:10.984Z,5.10
2023-03-13T01:15:38.802Z,5.10
2023-03-13T01:18:06.676Z,5.10
2023-03-13T01:20:34.472Z,5.00
2023-03-13T01:23:02.243Z,5.00
2023-03-13T01:25:31.343Z,5.00
2023-03-13T01:27:59.090Z,5.00
2023-03-13T01:30:26.837Z,5.00
2023-03-13T01:32:54.652Z,4.90
2023-03-13T01:35:22.525Z,5.00
2023-03-13T01:37:50.277Z,5.00
2023-03-13T01:40:18.264Z,4.90
2023-03-13T01:42:55.889Z,5.00
2023-03-13T01:46:01.427Z,4.90
2023-03-13T01:48:44.406Z,5.00
2023-03-13T01:51:17.601Z,5.00
2023-03-13T01:53:48.303Z,5.00
2023-03-13T01:56:20.680Z,4.90
2023-03-13T01:58:52.150Z,4.80
2023-03-13T02:01:21.119Z,4.70
2023-03-13T02:03:50.665Z,4.90
2023-03-13T02:06:19.134Z,4.80
2023-03-13T02:08:51.438Z,4.70
2023-03-13T02:11:28.590Z,4.60
2023-03-13T02:13:59.433Z,4.70
2023-03-13T02:16:27.902Z,4.80
2023-03-13T02:18:55.901Z,4.70
2023-03-13T02:21:40.195Z,4.70
2023-03-13T02:24:15.456Z,4.90
2023-03-13T02:26:44.657Z,4.80
2023-03-13T02:29:18.242Z,4.60
2023-03-13T02:31:48.098Z,4.90
2023-03-13T02:34:20.007Z,4.90
2023-03-13T02:36:48.801Z,4.90
2023-03-13T02:39:19.433Z,5.10
2023-03-13T02:41:49.107Z,5.00
2023-03-13T02:44:16.876Z,4.90
2023-03-13T02:46:46.877Z,5.00
2023-03-13T02:49:23.221Z,5.00
2023-03-13T02:51:51.582Z,5.10
2023-03-13T02:54:23.147Z,5.10
2023-03-13T02:56:56.666Z,5.10
2023-03-13T02:59:24.822Z,5.00
2023-03-13T03:01:53.549Z,5.10
2023-03-13T03:04:22.021Z,5.00
2023-03-13T03:06:50.173Z,5.00
2023-03-13T03:09:18.667Z,4.90
2023-03-13T03:11:47.074Z,4.80
2023-03-13T03:14:16.990Z,5.00
2023-03-13T03:16:45.089Z,5.10
2023-03-13T03:19:12.951Z,5.10
2023-03-13T03:21:40.922Z,5.10
2023-03-13T03:24:09.273Z,5.00
2023-03-13T03:26:37.131Z,5.00
2023-03-13T03:29:05.051Z,5.10
2023-03-13T03:31:34.170Z,5.00
2023-03-13T03:34:01.953Z,5.00
2023-03-13T03:36:30.489Z,4.90
2023-03-13T03:38:58.252Z,5.00
2023-03-13T03:41:26.158Z,5.00
2023-03-13T03:43:54.014Z,4.90
2023-03-13T03:46:21.953Z,4.80
2023-03-13T03:48:51.114Z,4.80
2023-03-13T03:51:18.914Z,4.80
2023-03-13T03:53:46.646Z,4.80
2023-03-13T03:56:14.656Z,4.70
2023-03-13T03:58:42.431Z,4.60
2023-03-13T04:01:10.175Z,4.70
2023-03-13T04:03:37.991Z,4.70
2023-03-13T04:06:07.992Z,4.60
2023-03-13T04:08:35.763Z,4.70
2023-03-13T04:11:03.838Z,4.70
2023-03-13T04:13:31.588Z,4.70
2023-03-13T04:15:59.354Z,4.80
2023-03-13T04:18:27.112Z,4.70
2023-03-13T04:21:01.726Z,4.80
2023-03-13T04:23:30.837Z,4.80
2023-03-13T04:25:58.712Z,4.80
2023-03-13T04:28:26.478Z,4.80
2023-03-13T04:30:57.204Z,4.80
2023-03-13T04:33:25.232Z,4.80
2023-03-13T04:35:53.256Z,4.70
2023-03-13T04:38:21.109Z,4.70
2023-03-13T04:40:50.602Z,4.80
2023-03-13T04:43:18.399Z,4.70
2023-03-13T04:45:46.521Z,4.80
2023-03-13T04:48:14.555Z,4.80
2023-03-13T04:50:42.439Z,4.80
2023-03-13T04:53:10.212Z,4.80
2023-03-13T04:55:37.972Z,4.90
2023-03-13T04:58:07.087Z,4.90
2023-03-13T05:00:34.875Z,5.00
2023-03-13T05:03:02.639Z,5.00
2023-03-13T05:05:30.465Z,5.00
2023-03-13T05:07:58.271Z,5.00
2023-03-13T05:10:26.139Z,5.00
2023-03-13T05:12:54.103Z,5.00
2023-03-13T05:15:23.214Z,4.90
2023-03-13T05:17:52.596Z,4.90
2023-03-13T05:20:22.054Z,4.90
2023-03-13T05:22:49.894Z,5.00
2023-03-13T05:25:17.774Z,5.00
2023-03-13T05:27:46.781Z,5.00
2023-03-13T05:30:14.771Z,5.10
2023-03-13T05:32:43.944Z,5.00
2023-03-13T05:35:11.774Z,5.10
2023-03-13T05:37:41.345Z,5.00
2023-03-13T05:40:10.698Z,5.10
2023-03-13T05:42:38.590Z,5.10
2023-03-13T05:45:08.703Z,5.10
2023-03-13T05:47:36.524Z,5.10
2023-03-13T05:50:07.421Z,5.20
2023-03-13T05:52:35.591Z,5.30
2023-03-13T05:55:03.318Z,5.30
2023-03-13T05:57:31.170Z,5.20
2023-03-13T05:59:59.487Z,5.20
2023-03-13T06:02:27.266Z,5.20
2023-03-13T06:04:55.150Z,5.20
2023-03-13T06:07:24.330Z,5.20
2023-03-13T06:09:52.136Z,5.20
2023-03-13T06:12:19.977Z,5.20
2023-03-13T06:14:47.711Z,5.30
2023-03-13T06:17:15.737Z,5.40
2023-03-13T06:19:43.513Z,5.40
2023-03-13T06:22:11.325Z,5.50
2023-03-13T06:24:40.384Z,5.50
2023-03-13T06:27:08.560Z,5.50
2023-03-13T06:29:36.272Z,5.70
2023-03-13T06:32:04.327Z,5.60
2023-03-13T06:34:32.240Z,5.60
2023-03-13T06:37:00.478Z,5.60
2023-03-13T06:39:28.430Z,5.60
2023-03-13T06:41:57.538Z,5.60
2023-03-13T06:44:25.511Z,5.70
2023-03-13T06:46:53.381Z,5.60
2023-03-13T06:49:21.186Z,5.80
2023-03-13T06:51:48.986Z,5.90
2023-03-13T06:54:16.873Z,5.80
2023-03-13T06:56:44.668Z,5.80
2023-03-13T06:59:13.852Z,5.90
2023-03-13T07:01:41.572Z,5.80
2023-03-13T07:04:12.908Z,5.90
2023-03-13T07:06:40.750Z,6.10
2023-03-13T07:09:08.868Z,6.00
2023-03-13T07:11:36.621Z,6.00
2023-03-13T07:14:15.957Z,5.90
2023-03-13T07:16:46.450Z,6.00
2023-03-13T07:19:15.132Z,6.00
2023-03-13T07:21:43.936Z,6.00
2023-03-13T07:24:11.973Z,6.00
2023-03-13T07:26:42.630Z,6.10
2023-03-13T07:29:16.493Z,6.30
2023-03-13T07:31:45.725Z,6.50
2023-03-13T07:34:13.531Z,6.50
2023-03-13T07:36:41.663Z,6.50
2023-03-13T07:39:09.798Z,6.50
2023-03-13T07:41:38.994Z,6.40
2023-03-13T07:44:07.668Z,6.40
2023-03-13T07:46:35.447Z,6.50
2023-03-13T07:49:04.540Z,6.60
2023-03-13T07:51:43.024Z,6.80
2023-03-13T07:54:12.091Z,6.60
2023-03-13T07:56:40.263Z,6.80
2023-03-13T07:59:08.238Z,7.10
2023-03-13T08:01:36.191Z,7.30
2023-03-13T08:04:05.880Z,6.90
2023-03-13T08:06:36.497Z,6.80
2023-03-13T08:09:05.419Z,6.90
2023-03-13T08:11:33.370Z,6.90
2023-03-13T08:14:01.259Z,7.00
2023-03-13T08:16:30.653Z,7.00
2023-03-13T08:19:00.011Z,7.10
2023-03-13T08:21:31.355Z,7.30
2023-03-13T08:24:01.143Z,7.70
2023-03-13T08:26:30.962Z,7.80
2023-03-13T08:29:00.305Z,7.40
2023-03-13T08:31:29.733Z,7.70
2023-03-13T08:33:58.067Z,7.30
2023-03-13T08:36:27.381Z,7.40
2023-03-13T08:38:59.579Z,7.50
2023-03-13T08:41:29.572Z,7.50
2023-03-13T08:43:58.262Z,7.90
2023-03-13T08:46:26.487Z,8.40
2023-03-13T08:48:55.866Z,8.60
2023-03-13T08:51:25.856Z,8.70
2023-03-13T08:53:54.137Z,9.00
2023-03-13T08:56:24.686Z,8.80
2023-03-13T08:58:53.464Z,8.80
2023-03-13T09:01:23.210Z,9.20
2023-03-13T09:03:52.443Z,9.40
2023-03-13T09:06:20.717Z,9.50
2023-03-13T09:08:48.784Z,9.80
2023-03-13T09:11:18.527Z,10.30
2023-03-13T09:13:49.257Z,10.20
2023-03-13T09:16:18.762Z,10.90
2023-03-13T09:18:47.041Z,10.50
2023-03-13T09:21:17.281Z,9.70
2023-03-13T09:23:45.330Z,10.00
2023-03-13T09:26:13.690Z,10.50
2023-03-13T09:28:42.133Z,10.40
2023-03-13T09:31:14.506Z,11.10
2023-03-13T09:33:42.787Z,11.50
2023-03-13T09:36:11.285Z,11.00
2023-03-13T09:38:39.516Z,11.30
2023-03-13T09:41:23.893Z,11.00
2023-03-13T09:43:55.399Z,10.50
2023-03-13T09:46:28.687Z,10.90
2023-03-13T09:49:00.841Z,10.60
2023-03-13T09:51:31.999Z,11.10
2023-03-13T09:54:05.024Z,11.50
2023-03-13T09:56:38.055Z,11.70
2023-03-13T09:59:12.825Z,12.40
2023-03-13T10:01:44.999Z,12.80
2023-03-13T10:04:28.715Z,12.30
2023-03-13T10:06:56.522Z,11.90
2023-03-13T10:09:29.272Z,11.70
2023-03-13T10:12:04.786Z,11.70
2023-03-13T10:14:39.230Z,11.40
2023-03-13T10:17:15.639Z,12.30
2023-03-13T10:19:44.326Z,11.90
2023-03-13T10:22:15.933Z,12.10
2023-03-13T10:24:50.940Z,11.70
2023-03-13T10:27:18.992Z,12.30
2023-03-13T10:29:46.794Z,13.00
2023-03-13T10:32:18.173Z,13.90
2023-03-13T10:34:50.672Z,13.10
2023-03-13T10:37:22.653Z,13.40
2023-03-13T10:39:50.553Z,13.10
2023-03-13T10:42:24.871Z,12.90
2023-03-13T10:44:58.947Z,12.20
2023-03-13T10:47:28.465Z,11.90
2023-03-13T10:49:58.496Z,11.90
2023-03-13T10:52:32.694Z,12.00
2023-03-13T10:55:06.217Z,12.70
2023-03-13T10:57:35.688Z,12.50
2023-03-13T11:00:24.496Z,12.70
2023-03-13T11:02:55.311Z,13.00
2023-03-13T11:05:38.288Z,13.00
2023-03-13T11:08:20.782Z,13.30
2023-03-13T11:10:57.106Z,13.30
2023-03-13T11:13:37.692Z,12.90
2023-03-13T11:16:21.984Z,12.60
2023-03-13T11:19:18.019Z,12.70
2023-03-13T11:21:58.095Z,13.10
2023-03-13T11:24:31.378Z,13.10
2023-03-13T11:27:06.586Z,13.70
2023-03-13T11:29:44.636Z,14.10
2023-03-13T11:32:22.619Z,14.50
2023-03-13T11:34:54.979Z,14.60
2023-03-13T11:37:24.070Z,14.60
2023-03-13T11:39:57.857Z,14.50
2023-03-13T11:42:47.897Z,14.70
2023-03-13T11:45:32.629Z,14.40
2023-03-13T11:48:08.529Z,14.90
2023-03-13T11:50:44.791Z,14.70
2023-03-13T11:53:37.380Z,14.90
2023-03-13T11:56:11.017Z,14.90
2023-03-13T11:59:03.839Z,15.10
2023-03-13T12:01:35.414Z,15.10
2023-03-13T12:04:07.303Z,14.90
2023-03-13T12:06:39.887Z,14.80
2023-03-13T12:09:13.631Z,14.80
2023-03-13T12:11:48.324Z,14.70
2023-03-13T12:14:22.597Z,15.00
2023-03-13T12:16:54.939Z,15.10
2023-03-13T12:19:29.435Z,15.00
2023-03-13T12:22:13.085Z,14.90
2023-03-13T12:24:48.156Z,14.70
2023-03-13T12:27:20.941Z,14.80
2023-03-13T12:29:56.129Z,14.90
2023-03-13T12:32:30.482Z,14.70
2023-03-13T12:35:07.791Z,14.70
2023-03-13T12:37:44.947Z,15.00
2023-03-13T12:40:22.528Z,15.40
2023-03-13T12:42:56.592Z,15.20
2023-03-13T12:45:27.146Z,15.60
2023-03-13T12:48:38.462Z,15.40
2023-03-13T12:51:28.780Z,15.70
2023-03-13T12:54:36.576Z,15.50
2023-03-13T12:57:25.747Z,15.80
2023-03-13T12:59:56.376Z,16.00
2023-03-13T13:02:27.947Z,15.70
2023-03-13T13:04:58.851Z,15.70
2023-03-13T13:07:28.294Z,16.00
2023-03-13T13:10:16.814Z,16.10
2023-03-13T13:12:46.064Z,16.30
2023-03-13T13:15:20.338Z,16.50
2023-03-13T13:17:56.153Z,16.80
2023-03-13T13:20:39.399Z,16.80
2023-03-13T13:23:36.780Z,16.70
2023-03-13T13:26:47.772Z,16.60
2023-03-13T13:29:55.913Z,16.50
2023-03-13T13:32:47.643Z,16.60
2023-03-13T13:35:34.450Z,16.50
2023-03-13T13:38:42.035Z,16.50
2023-03-13T13:41:36.956Z,16.50
2023-03-13T13:44:25.812Z,16.60
2023-03-13T13:46:56.126Z,16.50
2023-03-13T13:49:31.977Z,16.60
2023-03-13T13:52:20.374Z,16.40
2023-03-13T13:54:58.750Z,16.30
2023-03-13T13:57:28.575Z,16.30
2023-03-13T14:00:06.429Z,16.30
2023-03-13T14:02:37.173Z,16.40
2023-03-13T14:05:09.319Z,16.60
2023-03-13T14:07:51.350Z,16.60
2023-03-13T14:10:39.129Z,16.70
2023-03-13T14:13:16.320Z,16.80
2023-03-13T14:15:46.728Z,16.80
2023-03-13T14:18:21.937Z,17.00
2023-03-13T14:20:59.888Z,17.10
2023-03-13T14:23:39.985Z,17.20
2023-03-13T14:26:13.989Z,17.30
2023-03-13T14:28:44.128Z,17.40
2023-03-13T14:31:21.687Z,17.30
2023-03-13T14:33:49.818Z,17.40
2023-03-13T14:36:19.001Z,17.30
2023-03-13T14:38:53.623Z,17.20
2023-03-13T14:41:29.382Z,17.30
2023-03-13T14:44:04.339Z,17.40
2023-03-13T14:46:34.090Z,17.20
2023-03-13T14:49:09.535Z,17.20
2023-03-13T14:51:41.297Z,17.00
2023-03-13T14:54:27.647Z,17.10
2023-03-13T14:57:16.759Z,17.10
2023-03-13T14:59:45.165Z,16.90
2023-03-13T15:02:20.786Z,17.20
2023-03-13T15:04:53.422Z,16.70
2023-03-13T15:07:23.371Z,16.80
2023-03-13T15:09:51.978Z,16.70
2023-03-13T15:12:22.705Z,16.70
2023-03-13T15:14:52.386Z,16.60
2023-03-13T15:17:22.885Z,16.60
2023-03-13T15:19:52.741Z,16.60
2023-03-13T15:22:27.864Z,16.80
2023-03-13T15:25:05.811Z,16.60
2023-03-13T15:27:35.176Z,16.50
2023-03-13T15:30:03.107Z,16.70
2023-03-13T15:32:34.029Z,16.50
2023-03-13T15:35:03.364Z,16.60
2023-03-13T15:37:32.888Z,16.70
2023-03-13T15:40:00.724Z,16.60
2023-03-13T15:42:28.495Z,16.60
2023-03-13T15:44:56.378Z,16.90
2023-03-13T15:47:24.153Z,16.70
2023-03-13T15:49:51.945Z,17.10
2023-03-13T15:52:22.600Z,16.70
2023-03-13T15:54:52.902Z,16.80
2023-03-13T15:57:24.899Z,16.90
2023-03-13T15:59:54.054Z,16.60
2023-03-13T16:02:23.202Z,16.60
2023-03-13T16:04:52.107Z,16.60
2023-03-13T16:07:21.899Z,16.90
2023-03-13T16:09:51.839Z,16.80
2023-03-13T16:12:19.742Z,16.90
2023-03-13T16:14:47.633Z,16.60
2023-03-13T16:17:17.628Z,16.50
2023-03-13T16:19:46.334Z,16.30
2023-03-13T16:22:14.219Z,16.30
2023-03-13T16:24:42.285Z,16.10
2023-03-13T16:27:14.672Z,16.10
2023-03-13T16:29:43.120Z,16.10
2023-03-13T16:32:12.740Z,16.30
2023-03-13T16:34:49.828Z,16.10
2023-03-13T16:37:19.475Z,16.10
2023-03-13T16:39:50.373Z,15.90
2023-03-13T16:42:19.590Z,16.30
2023-03-13T16:44:47.542Z,16.10
2023-03-13T16:47:21.557Z,16.00
2023-03-13T16:49:49.635Z,15.80
2023-03-13T16:52:18.271Z,15.70
2023-03-13T16:54:46.507Z,15.60
2023-03-13T16:57:16.012Z,15.40
2023-03-13T16:59:45.274Z,15.60
2023-03-13T17:02:18.996Z,15.60
2023-03-13T17:04:48.185Z,15.70
2023-03-13T17:07:21.944Z,15.70
2023-03-13T17:09:49.915Z,15.40
2023-03-13T17:12:18.698Z,15.20
2023-03-13T17:14:48.436Z,15.40
2023-03-13T17:17:18.905Z,15.30
2023-03-13T17:19:47.098Z,15.30
2023-03-13T17:22:17.482Z,15.20
2023-03-13T17:24:45.414Z,15.10
2023-03-13T17:27:15.495Z,15.00
2023-03-13T17:29:44.064Z,15.00
2023-03-13T17:32:14.454Z,14.90
2023-03-13T17:34:42.771Z,14.90
2023-03-13T17:37:16.220Z,14.80
2023-03-13T17:39:44.692Z,14.80
2023-03-13T17:42:13.183Z,14.70
2023-03-13T17:44:41.420Z,14.70
2023-03-13T17:47:15.312Z,14.70
2023-03-13T17:49:43.710Z,14.60
2023-03-13T17:52:15.787Z,14.50
2023-03-13T17:54:44.388Z,14.40
2023-03-13T17:57:17.781Z,14.30
2023-03-13T17:59:46.560Z,14.30
2023-03-13T18:02:17.933Z,14.20
2023-03-13T18:04:46.091Z,14.20
2023-03-13T18:07:22.154Z,14.20
2023-03-13T18:09:49.995Z,14.10
2023-03-13T18:12:17.996Z,14.00
2023-03-13T18:14:46.636Z,13.90
2023-03-13T18:17:18.944Z,13.90
2023-03-13T18:19:47.420Z,13.90
2023-03-13T18:22:16.979Z,13.90
2023-03-13T18:24:45.022Z,13.80
2023-03-13T18:27:14.560Z,13.70
2023-03-13T18:29:43.080Z,13.60
2023-03-13T18:32:13.308Z,13.60
2023-03-13T18:34:42.840Z,13.70
2023-03-13T18:37:20.198Z,13.70
2023-03-13T18:39:49.801Z,13.60
2023-03-13T18:42:17.542Z,13.60
2023-03-13T18:44:45.338Z,13.50
2023-03-13T18:47:15.151Z,13.50
2023-03-13T18:49:44.617Z,13.40
2023-03-13T18:52:12.946Z,13.40
2023-03-13T18:54:41.371Z,13.40
2023-03-13T18:57:13.567Z,13.50
2023-03-13T18:59:41.403Z,13.30
2023-03-13T19:02:14.716Z,13.20
2023-03-13T19:04:44.391Z,13.20
2023-03-13T19:07:14.785Z,13.20
2023-03-13T19:09:44.647Z,13.20
2023-03-13T19:12:15.322Z,13.20
2023-03-13T19:14:43.206Z,13.20
2023-03-13T19:17:17.736Z,13.20
2023-03-13T19:19:46.918Z,13.10
2023-03-13T19:22:15.007Z,13.00
2023-03-13T19:24:42.805Z,12.90
2023-03-13T19:27:15.210Z,12.90
2023-03-13T19:29:43.097Z,12.90
2023-03-13T19:32:14.659Z,12.80
2023-03-13T19:34:42.618Z,12.80
2023-03-13T19:37:13.176Z,12.80
2023-03-13T19:39:41.550Z,12.70
2023-03-13T19:42:09.479Z,12.70
2023-03-13T19:44:38.014Z,12.60
2023-03-13T19:47:06.313Z,12.60
2023-03-13T19:49:34.506Z,12.60
2023-03-13T19:52:02.351Z,12.60
2023-03-13T19:54:31.440Z,12.60
2023-03-13T19:56:59.229Z,12.60
2023-03-13T19:59:27.622Z,12.60
2023-03-13T20:01:56.378Z,12.50
2023-03-13T20:04:25.026Z,12.40
2023-03-13T20:06:52.849Z,12.50
2023-03-13T20:09:21.340Z,12.40
2023-03-13T20:11:50.491Z,12.20
2023-03-13T20:14:18.419Z,12.10
2023-03-13T20:16:48.785Z,12.10
2023-03-13T20:19:17.208Z,12.10
2023-03-13T20:21:46.466Z,12.10
2023-03-13T20:24:14.232Z,12.10
2023-03-13T20:26:42.343Z,12.10
2023-03-13T20:29:11.420Z,11.90
2023-03-13T20:31:39.701Z,12.00
2023-03-13T20:34:07.923Z,11.80
2023-03-13T20:36:35.724Z,11.80
2023-03-13T20:39:05.367Z,11.70
2023-03-13T20:41:33.155Z,11.70
2023-03-13T20:44:00.988Z,11.80
2023-03-13T20:46:30.282Z,11.70
2023-03-13T20:48:59.092Z,11.80
2023-03-13T20:51:27.659Z,11.60
2023-03-13T20:53:55.478Z,11.60
2023-03-13T20:56:23.283Z,11.60
2023-03-13T20:58:51.085Z,11.50
2023-03-13T21:01:19.771Z,11.50
2023-03-13T21:03:49.074Z,11.50
2023-03-13T21:06:18.742Z,11.40
2023-03-13T21:08:47.016Z,11.50
2023-03-13T21:11:16.569Z,11.50
2023-03-13T21:13:44.407Z,11.50
2023-03-13T21:16:13.925Z,11.60
2023-03-13T21:18:42.004Z,11.40
2023-03-13T21:21:14.875Z,11.50
2023-03-13T21:23:42.757Z,11.40
2023-03-13T21:26:10.795Z,11.40
2023-03-13T21:28:39.410Z,11.30
2023-03-13T21:31:12.427Z,11.30
2023-03-13T21:33:41.409Z,11.30
2023-03-13T21:36:12.521Z,11.40
2023-03-13T21:38:40.330Z,11.40
2023-03-13T21:41:09.333Z,11.40
2023-03-13T21:43:37.319Z,11.40
2023-03-13T21:46:05.462Z,11.40
2023-03-13T21:48:33.208Z,11.40
2023-03-13T21:51:01.068Z,11.40
2023-03-13T21:53:30.202Z,11.40
2023-03-13T21:55:57.952Z,11.40
2023-03-13T21:58:26.067Z,11.40
2023-03-13T22:00:54.981Z,11.40
2023-03-13T22:03:23.220Z,11.40
2023-03-13T22:05:51.209Z,11.30
2023-03-13T22:08:19.188Z,11.30
2023-03-13T22:10:50.656Z,11.30
2023-03-13T22:13:18.843Z,11.20
2023-03-13T22:15:47.073Z,11.20
2023-03-13T22:18:15.741Z,11.10
2023-03-13T22:20:43.918Z,11.20
2023-03-13T22:23:12.525Z,11.30
2023-03-13T22:25:41.156Z,11.30
2023-03-13T22:28:10.632Z,11.20
2023-03-13T22:30:39.563Z,11.20
2023-03-13T22:33:07.709Z,11.20
2023-03-13T22:35:35.963Z,11.10
2023-03-13T22:38:04.115Z,11.20
2023-03-13T22:40:32.233Z,11.30
2023-03-13T22:43:00.074Z,11.30
2023-03-13T22:45:30.392Z,11.20
2023-03-13T22:47:58.385Z,11.30
2023-03-13T22:50:27.880Z,11.30
2023-03-13T22:52:55.676Z,11.20
2023-03-13T22:55:23.474Z,11.20
2023-03-13T22:57:51.271Z,11.10
2023-03-13T23:02:55.877Z,11.10
2023-03-13T23:05:23.799Z,11.10
2023-03-13T23:07:51.659Z,11.00
2023-03-13T23:10:21.576Z,11.00
2023-03-13T23:12:49.357Z,11.00
2023-03-13T23:15:17.236Z,10.90
2023-03-13T23:17:44.975Z,10.80
2023-03-13T23:20:14.682Z,10.80
2023-03-13T23:22:43.195Z,10.80
2023-03-13T23:25:12.674Z,10.90
2023-03-13T23:27:40.758Z,10.90
2023-03-13T23:30:12.902Z,11.00
2023-03-13T23:32:42.917Z,10.90
2023-03-13T23:35:11.762Z,10.90
2023-03-13T23:37:41.029Z,10.90
2023-03-13T23:40:11.808Z,10.90
2023-03-13T23:42:39.652Z,10.70
2023-03-13T23:45:09.088Z,10.60
2023-03-13T23:47:36.993Z,10.70
2023-03-13T23:50:05.751Z,10.60
2023-03-13T23:52:35.101Z,10.70
2023-03-13T23:55:05.404Z,10.70
2023-03-13T23:57:33.702Z,10.70
